Time;durP1;ratioP1;P1;durP2;ratioP2;P2;SDS_P1;SDS_P2;PMS_P1;PMS_P2;Temp;Humidity;BMP_temperature;BMP_pressure;BME280_temperature;BME280_humidity;BME280_pressure;Samples;Min_cycle;Max_cycle;Signal;HPM_P1;HPM_P2
2021/08/08 00:01:19;;;;;;;15.20;11.60;;;;;;;20.61;100.00;100282.92;1629463;85;21129;-86
2021/08/08 00:03:46;;;;;;;13.18;11.33;;;;;;;20.57;100.00;100281.66;1632099;85;21844;-86
2021/08/08 00:06:14;;;;;;;12.82;11.30;;;;;;;20.46;100.00;100285.14;1656782;84;21584;-89
2021/08/08 00:08:43;;;;;;;12.75;11.22;;;;;;;20.35;100.00;100288.27;1681804;85;21035;-88
2021/08/08 00:11:10;;;;;;;12.35;11.15;;;;;;;20.23;100.00;100301.67;1686316;84;21078;-86
2021/08/08 00:13:37;;;;;;;14.03;11.83;;;;;;;20.15;100.00;100302.08;1666805;84;21548;-92
2021/08/08 00:16:04;;;;;;;12.85;11.55;;;;;;;20.18;100.00;100300.39;1657937;85;21202;-86
2021/08/08 00:18:33;;;;;;;12.33;11.03;;;;;;;20.16;100.00;100298.43;1690054;83;21086;-86
2021/08/08 00:21:00;;;;;;;14.38;12.47;;;;;;;20.06;100.00;100295.28;1662962;84;21094;-86
2021/08/08 00:23:27;;;;;;;13.00;11.70;;;;;;;19.97;100.00;100298.52;1667035;84;21097;-87
2021/08/08 00:25:55;;;;;;;13.18;11.85;;;;;;;19.97;100.00;100299.03;1666819;84;21035;-91
2021/08/08 00:28:22;;;;;;;12.70;11.22;;;;;;;20.00;100.00;100306.58;1681000;84;21093;-86
2021/08/08 00:30:49;;;;;;;14.03;12.28;;;;;;;20.06;100.00;100313.78;1682460;83;21033;-86
2021/08/08 00:33:17;;;;;;;13.22;11.83;;;;;;;20.14;100.00;100302.27;1677224;84;21034;-85
2021/08/08 00:35:46;;;;;;;15.75;11.35;;;;;;;20.13;100.00;100294.86;1654526;84;21094;-86
2021/08/08 00:38:16;;;;;;;10.82;9.83;;;;;;;20.07;100.00;100294.25;1699307;83;21086;-85
2021/08/08 00:40:43;;;;;;;13.70;11.57;;;;;;;19.98;100.00;100287.47;1668783;84;21723;-87
2021/08/08 00:43:11;;;;;;;13.60;11.08;;;;;;;19.96;100.00;100288.95;1653697;83;21106;-86
2021/08/08 00:45:40;;;;;;;13.03;11.48;;;;;;;20.00;100.00;100292.88;1680985;83;21110;-86
2021/08/08 00:48:09;;;;;;;12.33;11.12;;;;;;;20.09;100.00;100299.38;1671406;83;20993;-89
2021/08/08 00:50:38;;;;;;;11.38;10.32;;;;;;;20.11;100.00;100297.38;1678685;84;21632;-88
2021/08/08 00:53:07;;;;;;;10.72;9.83;;;;;;;20.11;100.00;100288.93;1707782;83;21970;-87
2021/08/08 00:55:35;;;;;;;13.58;10.80;;;;;;;20.17;100.00;100274.16;1664120;83;21112;-88
2021/08/08 00:58:02;;;;;;;11.15;10.03;;;;;;;20.19;100.00;100276.09;1688596;83;21004;-87
2021/08/08 01:00:30;;;;;;;11.68;10.48;;;;;;;20.21;100.00;100285.98;1689865;83;21055;-87
2021/08/08 01:03:01;;;;;;;11.53;10.38;;;;;;;20.16;100.00;100287.86;1670160;83;20966;-88
2021/08/08 01:05:34;;;;;;;12.13;10.65;;;;;;;20.11;100.00;100278.88;1705757;83;21520;-88
2021/08/08 01:08:05;;;;;;;14.40;10.35;;;;;;;20.06;100.00;100277.27;1679780;83;21751;-87
2021/08/08 01:10:33;;;;;;;13.67;10.13;;;;;;;20.03;100.00;100278.47;1669703;83;21580;-87
2021/08/08 01:13:02;;;;;;;13.28;11.20;;;;;;;20.03;100.00;100278.47;1651544;83;21006;-89
2021/08/08 01:15:32;;;;;;;11.70;10.50;;;;;;;20.03;100.00;100278.47;1659382;85;21075;-87
2021/08/08 01:18:00;;;;;;;12.65;11.43;;;;;;;20.05;100.00;100276.47;1659302;85;21040;-87
2021/08/08 01:20:29;;;;;;;12.43;10.65;;;;;;;20.03;100.00;100282.44;1675255;83;21050;-88
2021/08/08 01:23:02;;;;;;;15.23;11.10;;;;;;;20.03;100.00;100282.44;1672682;85;21220;-84
2021/08/08 01:25:30;;;;;;;12.55;10.35;;;;;;;19.98;100.00;100276.89;1643607;84;21099;-87
2021/08/08 01:28:01;;;;;;;12.70;11.50;;;;;;;19.92;100.00;100271.01;1658651;84;21112;-88
2021/08/08 01:30:30;;;;;;;12.80;11.45;;;;;;;19.95;100.00;100274.61;1623589;85;21501;-87
2021/08/08 01:33:03;;;;;;;13.43;11.05;;;;;;;20.00;100.00;100290.72;1654195;85;20999;-86
2021/08/08 01:35:30;;;;;;;13.88;10.98;;;;;;;20.05;100.00;100288.36;1649019;85;21169;-89
2021/08/08 01:38:00;;;;;;;13.93;12.28;;;;;;;20.05;100.00;100287.04;1659092;85;21011;-86
2021/08/08 01:40:57;;;;;;;14.10;11.45;;;;;;;20.02;100.00;100287.39;1639262;85;21054;-87
2021/08/08 01:43:29;;;;;;;17.42;11.95;;;;;;;20.00;100.00;100281.47;1572442;87;21266;-87
2021/08/08 01:46:04;;;;;;;12.47;11.28;;;;;;;19.94;100.00;100284.86;1667704;85;21207;-87
2021/08/08 01:48:38;;;;;;;14.83;12.00;;;;;;;19.81;100.00;100283.68;1631096;85;21132;-87
2021/08/08 01:51:06;;;;;;;15.08;11.80;;;;;;;19.72;100.00;100278.17;1641508;86;21030;-86
2021/08/08 01:53:33;;;;;;;14.38;12.88;;;;;;;19.71;100.00;100275.20;1635799;86;21090;-87
2021/08/08 01:56:01;;;;;;;14.80;12.18;;;;;;;19.76;100.00;100276.78;1631618;85;21146;-87
2021/08/08 01:58:30;;;;;;;13.65;12.35;;;;;;;19.86;100.00;100283.16;1634811;85;21101;-89
2021/08/08 02:00:59;;;;;;;16.30;13.98;;;;;;;19.85;100.00;100272.27;1676755;84;20995;-89
2021/08/08 02:03:40;;;;;;;17.23;13.13;;;;;;;19.88;100.00;100265.80;1671574;85;21506;-86
2021/08/08 02:06:10;;;;;;;17.27;13.50;;;;;;;19.84;100.00;100273.23;1661018;84;21130;-86
2021/08/08 02:08:38;;;;;;;16.17;14.47;;;;;;;19.81;100.00;100273.11;1652951;85;21109;-88
2021/08/08 02:11:13;;;;;;;20.48;14.23;;;;;;;19.81;100.00;100282.36;1648846;83;21097;-86
2021/08/08 02:13:42;;;;;;;17.52;14.40;;;;;;;19.86;100.00;100292.41;1671032;83;21030;-88
2021/08/08 02:16:09;;;;;;;15.15;13.58;;;;;;;19.93;100.00;100299.91;1683311;83;21030;-85
2021/08/08 02:18:36;;;;;;;15.78;14.23;;;;;;;20.00;100.00;100298.64;1707726;83;21130;-89
2021/08/08 02:21:04;;;;;;;16.50;13.98;;;;;;;20.05;100.00;100289.68;1681566;83;21117;-86
2021/08/08 02:23:32;;;;;;;16.40;13.78;;;;;;;20.07;100.00;100291.61;1695103;83;21192;-90
2021/08/08 02:26:01;;;;;;;17.82;13.95;;;;;;;20.10;100.00;100290.45;1685731;83;21006;-88
2021/08/08 02:28:30;;;;;;;16.97;12.98;;;;;;;20.13;100.00;100297.50;1671494;83;21644;-86
2021/08/08 02:30:57;;;;;;;15.25;13.75;;;;;;;20.19;100.00;100298.55;1636524;85;21042;-86
2021/08/08 02:33:26;;;;;;;17.50;12.70;;;;;;;20.23;100.00;100297.19;1656460;85;21115;-85
2021/08/08 02:35:54;;;;;;;15.38;13.78;;;;;;;20.28;100.00;100302.73;1654582;84;21062;-90
2021/08/08 02:38:22;;;;;;;17.35;13.60;;;;;;;20.27;100.00;100306.38;1636616;85;21070;-87
2021/08/08 02:40:51;;;;;;;19.70;14.28;;;;;;;20.26;100.00;100302.12;1668221;85;21216;-89
2021/08/08 02:43:18;;;;;;;18.17;14.43;;;;;;;20.26;100.00;100303.44;1639297;85;21093;-88
2021/08/08 02:45:49;;;;;;;15.48;14.05;;;;;;;20.26;100.00;100305.25;1672195;85;21043;-89
2021/08/08 02:48:18;;;;;;;16.70;14.35;;;;;;;20.25;100.00;100308.89;1660597;85;21180;-89
2021/08/08 02:50:45;;;;;;;22.40;15.32;;;;;;;20.26;100.00;100312.69;1651006;85;21055;-89
2021/08/08 02:53:13;;;;;;;17.62;15.10;;;;;;;20.26;100.00;100312.69;1633401;85;21031;-87
2021/08/08 02:55:42;;;;;;;21.57;16.40;;;;;;;20.30;100.00;100314.45;1677295;85;21078;-87
2021/08/08 02:58:09;;;;;;;17.98;16.07;;;;;;;20.33;100.00;100316.22;1661830;83;21946;-90
2021/08/08 03:00:38;;;;;;;24.23;16.93;;;;;;;20.37;100.00;100319.80;1658169;83;21154;-90
2021/08/08 03:03:06;;;;;;;29.87;18.32;;;;;;;20.32;100.00;100319.03;1651092;83;21071;-90
2021/08/08 03:05:35;;;;;;;27.35;19.35;;;;;;;20.27;100.00;100322.23;1675829;83;21100;-89
2021/08/08 03:08:02;;;;;;;24.15;20.65;;;;;;;20.26;100.00;100321.11;1676128;83;21736;-89
2021/08/08 03:10:30;;;;;;;31.40;24.67;;;;;;;20.24;100.00;100321.79;1700031;83;21162;-90
2021/08/08 03:12:58;;;;;;;55.70;34.10;;;;;;;20.22;100.00;100321.17;1683642;83;21034;-85
2021/08/08 03:15:25;;;;;;;34.60;26.48;;;;;;;20.23;100.00;100325.47;1684979;83;21518;-89
2021/08/08 03:17:52;;;;;;;26.95;22.52;;;;;;;20.24;100.00;100321.79;1679119;83;21068;-87
2021/08/08 03:20:20;;;;;;;33.78;24.07;;;;;;;20.15;100.00;100319.77;1695808;83;21201;-88
2021/08/08 03:22:49;;;;;;;24.50;21.90;;;;;;;20.05;100.00;100329.32;1682338;83;21035;-87
2021/08/08 03:25:18;;;;;;;23.27;20.25;;;;;;;19.99;100.00;100339.31;1651905;85;21053;-91
2021/08/08 03:27:45;;;;;;;24.63;20.75;;;;;;;20.04;100.00;100345.34;1642011;85;21537;-88
2021/08/08 03:30:13;;;;;;;20.97;18.98;;;;;;;20.10;100.00;100345.43;1655861;85;21651;-87
2021/08/08 03:32:41;;;;;;;20.08;18.05;;;;;;;20.06;100.00;100340.22;1633079;85;21074;-88
2021/08/08 03:35:09;;;;;;;20.43;18.12;;;;;;;20.01;100.00;100339.92;1641879;85;21145;-89
2021/08/08 03:37:38;;;;;;;20.45;18.25;;;;;;;19.96;100.00;100335.70;1677545;85;21244;-89
2021/08/08 03:40:08;;;;;;;21.35;19.12;;;;;;;19.94;100.00;100341.19;1633044;86;21103;-84
2021/08/08 03:42:35;;;;;;;20.57;18.37;;;;;;;19.94;100.00;100351.75;1642848;85;21051;-86
2021/08/08 03:45:03;;;;;;;19.80;17.85;;;;;;;19.96;100.00;100349.72;1663742;83;21008;-89
2021/08/08 03:47:33;;;;;;;20.62;18.62;;;;;;;19.99;100.00;100357.81;1675523;84;21152;-91
2021/08/08 03:50:01;;;;;;;22.37;20.15;;;;;;;20.02;100.00;100353.46;1640718;86;21912;-87
2021/08/08 03:52:31;;;;;;;21.85;19.65;;;;;;;20.05;100.00;100360.20;1664898;85;21058;-86
2021/08/08 03:54:58;;;;;;;22.02;19.42;;;;;;;20.08;100.00;100360.64;1659144;85;21078;-89
2021/08/08 03:57:25;;;;;;;21.07;18.73;;;;;;;20.11;100.00;100355.00;1676887;85;21055;-90
2021/08/08 03:59:53;;;;;;;21.65;19.20;;;;;;;20.11;100.00;100355.52;1654216;85;21066;-88
2021/08/08 04:02:20;;;;;;;21.60;19.50;;;;;;;20.12;100.00;100347.39;1682539;85;21536;-87
2021/08/08 04:04:50;;;;;;;24.15;20.08;;;;;;;20.13;100.00;100350.84;1662892;85;21564;-91
2021/08/08 04:07:17;;;;;;;22.00;19.80;;;;;;;20.14;100.00;100348.52;1644697;85;21601;-88
2021/08/08 04:09:44;;;;;;;22.30;20.10;;;;;;;20.13;100.00;100346.39;1661917;83;21149;-92
2021/08/08 04:12:13;;;;;;;22.20;19.95;;;;;;;20.11;100.00;100338.34;1676827;83;21896;-91
2021/08/08 04:14:43;;;;;;;23.40;20.97;;;;;;;20.09;100.00;100334.53;1710080;83;21089;-87
2021/08/08 04:17:11;;;;;;;22.62;20.27;;;;;;;20.09;100.00;100333.73;1665156;83;21101;-82
2021/08/08 04:19:38;;;;;;;22.62;20.35;;;;;;;20.10;100.00;100346.75;1672251;83;21147;-90
2021/08/08 04:22:05;;;;;;;21.77;19.57;;;;;;;20.12;100.00;100351.36;1687644;83;21069;-88
2021/08/08 04:24:33;;;;;;;23.57;21.23;;;;;;;20.19;100.00;100348.78;1684920;84;21082;-86
2021/08/08 04:27:01;;;;;;;23.62;21.10;;;;;;;20.25;100.00;100352.51;1700318;83;21535;-90
2021/08/08 04:29:28;;;;;;;26.40;21.10;;;;;;;20.32;100.00;100348.11;1708533;83;21014;-91
2021/08/08 04:31:56;;;;;;;23.25;21.05;;;;;;;20.38;100.00;100347.88;1704237;83;20993;-90
2021/08/08 04:34:23;;;;;;;23.25;20.92;;;;;;;20.42;100.00;100352.61;1686810;82;21142;-91
2021/08/08 04:36:51;;;;;;;22.98;20.68;;;;;;;20.44;100.00;100345.80;1640897;85;21126;-90
2021/08/08 04:39:19;;;;;;;23.92;20.97;;;;;;;20.44;100.00;100342.67;1643317;85;21053;-88
2021/08/08 04:41:46;;;;;;;24.15;21.95;;;;;;;20.47;100.00;100349.41;1632837;86;21248;-90
2021/08/08 04:44:13;;;;;;;24.32;21.80;;;;;;;20.48;100.00;100346.56;1622943;86;21711;-89
2021/08/08 04:46:40;;;;;;;23.25;20.95;;;;;;;20.51;100.00;100345.37;1700963;82;21553;-90
2021/08/08 04:49:08;;;;;;;23.20;21.00;;;;;;;20.55;100.00;100353.78;1672024;83;21220;-86
2021/08/08 04:51:35;;;;;;;23.75;21.45;;;;;;;20.56;100.00;100347.45;1706955;82;21031;-87
2021/08/08 04:54:05;;;;;;;24.30;22.00;;;;;;;20.59;100.00;100345.77;1701066;83;22132;-87
2021/08/08 04:56:32;;;;;;;24.65;22.13;;;;;;;20.61;100.00;100347.73;1704725;82;21057;-85
2021/08/08 04:58:59;;;;;;;25.12;21.20;;;;;;;20.65;100.00;100339.72;1674903;84;21057;-89
2021/08/08 05:01:29;;;;;;;24.52;22.15;;;;;;;20.65;100.00;100335.75;1678250;83;21119;-90
2021/08/08 05:03:57;;;;;;;24.98;22.60;;;;;;;20.68;100.00;100339.84;1673670;83;21231;-89
2021/08/08 05:06:24;;;;;;;24.40;22.10;;;;;;;20.69;100.00;100340.16;1662475;85;21075;-85
2021/08/08 05:08:53;;;;;;;26.25;23.50;;;;;;;20.72;100.00;100338.47;1707502;83;21080;-89
2021/08/08 05:11:20;;;;;;;25.62;23.22;;;;;;;20.76;100.00;100339.75;1702316;83;21046;-94
2021/08/08 05:13:49;;;;;;;25.17;22.73;;;;;;;20.81;100.00;100351.92;1692587;83;21366;-86
2021/08/08 05:16:16;;;;;;;25.57;23.12;;;;;;;20.84;100.00;100342.78;1678021;83;22300;-88
2021/08/08 05:18:45;;;;;;;25.92;23.42;;;;;;;20.85;100.00;100338.61;1698544;83;21066;-91
2021/08/08 05:21:12;;;;;;;26.82;24.27;;;;;;;20.88;100.00;100342.70;1701564;83;21086;-91
2021/08/08 05:23:39;;;;;;;25.08;22.50;;;;;;;20.94;100.00;100341.45;1678140;82;21054;-93
2021/08/08 05:26:06;;;;;;;26.20;23.50;;;;;;;21.05;100.00;100345.41;1683469;83;21098;-89
2021/08/08 05:28:33;;;;;;;27.07;24.47;;;;;;;21.15;100.00;100352.20;1704041;83;21107;-86
2021/08/08 05:31:00;;;;;;;27.32;24.63;;;;;;;21.22;100.00;100355.23;1676488;84;21585;-90
2021/08/08 05:33:28;;;;;;;28.02;25.32;;;;;;;21.26;100.00;100363.60;1670620;83;21486;-89
2021/08/08 05:35:56;;;;;;;28.35;25.65;;;;;;;21.31;100.00;100362.51;1700495;82;21120;-88
2021/08/08 05:38:23;;;;;;;28.57;25.77;;;;;;;21.36;100.00;100357.45;1703459;82;21150;-84
2021/08/08 05:40:50;;;;;;;28.92;26.15;;;;;;;21.40;100.00;100354.73;1691225;83;20955;-90
2021/08/08 05:43:19;;;;;;;28.05;25.35;;;;;;;21.44;100.00;100353.84;1668718;83;21105;-89
2021/08/08 05:45:47;;;;;;;28.55;25.50;;;;;;;21.46;100.00;100360.27;1661141;84;21701;-89
2021/08/08 05:48:15;;;;;;;27.40;24.75;;;;;;;21.51;100.00;100364.49;1668354;83;21070;-89
2021/08/08 05:50:43;;;;;;;27.82;25.12;;;;;;;21.57;100.00;100361.90;1695787;82;21142;-88
2021/08/08 05:53:10;;;;;;;28.75;25.95;;;;;;;21.66;100.00;100363.07;1709175;82;21108;-88
2021/08/08 05:55:44;;;;;;;29.55;26.52;;;;;;;21.72;100.00;100360.47;1688297;83;21161;-85
2021/08/08 05:58:08;;;;;;;28.10;25.30;;;;;;;21.82;100.00;100365.41;1672365;83;21708;-84
2021/08/08 06:00:40;;;;;;;27.42;24.82;;;;;;;21.92;100.00;100360.26;1665032;84;21509;-83
2021/08/08 06:03:10;;;;;;;27.82;25.05;;;;;;;22.04;100.00;100359.51;1679861;83;21166;-91
2021/08/08 06:05:41;;;;;;;27.75;25.05;;;;;;;22.13;100.00;100348.73;1691250;83;20961;-86
2021/08/08 06:08:08;;;;;;;;;;;;;;;22.22;100.00;100343.05;1651260;85;21145;-87
2021/08/08 06:10:36;;;;;;;26.90;24.30;;;;;;;22.36;100.00;100347.89;1682238;84;20172;-90
2021/08/08 06:13:05;;;;;;;28.55;25.75;;;;;;;22.46;100.00;100348.05;1651104;85;21039;-92
2021/08/08 06:15:34;;;;;;;28.30;25.40;;;;;;;22.49;100.00;100344.98;1629862;85;21132;-88
2021/08/08 06:18:03;;;;;;;27.40;24.77;;;;;;;22.44;100.00;100342.92;1670181;85;21093;-87
2021/08/08 06:20:30;;;;;;;28.40;25.65;;;;;;;22.43;100.00;100334.69;1595562;87;21075;-88
2021/08/08 06:23:00;;;;;;;26.33;23.85;;;;;;;22.49;100.00;100337.02;1643749;86;21046;-86
2021/08/08 06:25:27;;;;;;;27.95;25.17;;;;;;;22.64;100.00;100331.55;1641253;85;21129;-87
2021/08/08 06:27:55;;;;;;;26.95;24.35;;;;;;;22.83;100.00;100332.59;1668063;85;21726;-86
2021/08/08 06:30:23;;;;;;;26.30;23.70;;;;;;;23.02;100.00;100324.84;1672206;85;21090;-89
2021/08/08 06:32:51;;;;;;;26.90;24.37;;;;;;;23.18;100.00;100318.30;1665814;85;21078;-89
2021/08/08 06:35:18;;;;;;;25.97;23.42;;;;;;;23.21;100.00;100314.73;1672147;85;21054;-86
2021/08/08 06:37:46;;;;;;;28.67;24.37;;;;;;;23.24;100.00;100324.95;1647748;85;21089;-86
2021/08/08 06:40:16;;;;;;;24.72;22.40;;;;;;;23.31;100.00;100339.03;1672020;84;21461;-86
2021/08/08 06:42:43;;;;;;;26.42;23.98;;;;;;;23.40;100.00;100337.48;1630505;85;21093;-87
2021/08/08 06:45:12;;;;;;;27.27;24.60;;;;;;;23.49;100.00;100330.94;1660059;85;21089;-86
2021/08/08 06:47:39;;;;;;;25.80;23.32;;;;;;;23.65;100.00;100328.85;1677579;83;21113;-86
2021/08/08 06:50:10;;;;;;;26.23;23.70;;;;;;;23.76;100.00;100330.84;1694650;83;21090;-87
2021/08/08 06:52:41;;;;;;;25.12;22.45;;;;;;;23.83;100.00;100326.84;1699953;83;21093;-87
2021/08/08 06:55:13;;;;;;;26.35;23.77;;;;;;;23.82;100.00;100327.38;1696519;83;21052;-88
2021/08/08 06:57:45;;;;;;;24.80;22.32;;;;;;;23.74;100.00;100324.42;1665257;84;21071;-90
2021/08/08 07:00:15;;;;;;;26.10;23.60;;;;;;;23.73;100.00;100328.09;1671759;84;21039;-85
2021/08/08 07:02:42;;;;;;;26.68;24.18;;;;;;;23.84;100.00;100318.65;1689485;83;21166;-87
2021/08/08 07:05:10;;;;;;;25.08;22.58;;;;;;;23.99;100.00;100325.08;1680804;83;21654;-94
2021/08/08 07:07:39;;;;;;;23.87;21.48;;;;;;;24.06;100.00;100324.53;1693597;83;20975;-90
2021/08/08 07:10:07;;;;;;;23.40;21.02;;;;;;;24.11;100.00;100321.23;1633494;86;21029;-89
2021/08/08 07:12:36;;;;;;;22.75;20.65;;;;;;;24.18;100.00;100326.00;1652680;86;21137;-84
2021/08/08 07:15:06;;;;;;;22.90;20.70;;;;;;;24.32;100.00;100339.22;1702635;83;21044;-85
2021/08/08 07:17:34;;;;;;;22.73;19.90;;;;;;;24.48;100.00;100333.39;1676884;83;21130;-86
2021/08/08 07:20:03;;;;;;;21.77;19.82;;;;;;;24.62;100.00;100326.67;1671487;84;21524;-87
2021/08/08 07:22:31;;;;;;;22.25;19.92;;;;;;;24.75;100.00;100337.78;1673629;82;21037;-86
2021/08/08 07:24:58;;;;;;;22.20;20.20;;;;;;;24.87;100.00;100326.21;1696943;83;21519;-85
2021/08/08 07:27:26;;;;;;;20.00;18.20;;;;;;;24.97;100.00;100329.70;1678016;83;21013;-88
2021/08/08 07:29:54;;;;;;;23.65;20.90;;;;;;;25.08;100.00;100318.05;1705101;81;21117;-85
2021/08/08 07:32:22;;;;;;;23.47;21.15;;;;;;;25.17;100.00;100320.20;1665029;83;21542;-86
2021/08/08 07:34:49;;;;;;;23.65;21.30;;;;;;;25.25;100.00;100320.95;1685415;83;21026;-87
2021/08/08 07:37:17;;;;;;;23.80;21.60;;;;;;;25.31;100.00;100314.74;1643126;85;21035;-84
2021/08/08 07:39:44;;;;;;;22.42;18.07;;;;;;;25.35;100.00;100314.61;1659268;85;21097;-87
2021/08/08 07:42:13;;;;;;;20.97;18.60;;;;;;;25.42;100.00;100305.23;1669298;85;21129;-90
2021/08/08 07:44:40;;;;;;;22.13;19.92;;;;;;;25.52;100.00;100300.20;1631052;85;21101;-85
2021/08/08 07:47:08;;;;;;;21.12;19.23;;;;;;;25.61;100.00;100298.88;1668936;85;21042;-89
2021/08/08 07:49:36;;;;;;;21.82;19.55;;;;;;;25.68;100.00;100302.77;1643646;85;21064;-91
2021/08/08 07:52:04;;;;;;;21.87;19.75;;;;;;;25.75;100.00;100291.53;1663397;85;21066;-85
2021/08/08 07:54:31;;;;;;;21.02;18.92;;;;;;;25.84;100.00;100274.70;1654257;85;21162;-87
2021/08/08 07:56:58;;;;;;;21.40;19.40;;;;;;;25.88;100.00;100275.06;1650279;85;21020;-87
2021/08/08 07:59:25;;;;;;;22.70;20.50;;;;;;;25.93;100.00;100282.69;1635164;85;21110;-88
2021/08/08 08:01:52;;;;;;;22.40;20.20;;;;;;;25.97;100.00;100283.05;1624492;85;21565;-87
2021/08/08 08:04:19;;;;;;;21.93;19.80;;;;;;;25.87;100.00;100276.09;1671511;85;21566;-91
2021/08/08 08:06:48;;;;;;;21.33;19.17;;;;;;;25.83;100.00;100284.56;1647955;85;21127;-89
2021/08/08 08:09:15;;;;;;;22.25;20.15;;;;;;;25.83;100.00;100287.23;1648518;83;21212;-88
2021/08/08 08:11:43;;;;;;;21.17;19.17;;;;;;;25.95;100.00;100289.95;1639774;85;21109;-86
2021/08/08 08:14:10;;;;;;;21.70;19.62;;;;;;;26.13;100.00;100301.13;1664542;85;21562;-91
2021/08/08 08:16:37;;;;;;;21.37;19.30;;;;;;;26.25;100.00;100311.00;1631005;85;21506;-90
2021/08/08 08:19:05;;;;;;;20.80;18.92;;;;;;;26.34;100.00;100314.98;1654010;85;21808;-90
2021/08/08 08:21:32;;;;;;;20.15;18.27;;;;;;;26.47;100.00;100331.33;1646317;84;21026;-90
2021/08/08 08:23:59;;;;;;;19.48;17.60;;;;;;;26.57;100.00;100334.77;1624183;85;21063;-88
2021/08/08 08:26:28;;;;;;;20.60;18.80;;;;;;;26.68;100.00;100339.33;1640692;85;20992;-86
2021/08/08 08:28:55;;;;;;;21.15;19.15;;;;;;;26.71;100.00;100334.88;1666214;83;21133;-88
2021/08/08 08:31:22;;;;;;;23.42;21.10;;;;;;;26.74;100.00;100332.27;1682832;83;22000;-87
2021/08/08 08:33:49;;;;;;;22.25;20.15;;;;;;;26.72;100.00;100337.81;1681934;83;21216;-88
2021/08/08 08:36:17;;;;;;;22.13;20.12;;;;;;;26.72;100.00;100333.81;1670401;83;21098;-89
2021/08/08 08:38:44;;;;;;;21.23;19.15;;;;;;;26.74;100.00;100326.92;1649288;83;21469;-91
2021/08/08 08:41:16;;;;;;;21.87;19.77;;;;;;;26.77;100.00;100330.48;1674450;83;21070;-88
2021/08/08 08:43:45;;;;;;;21.17;19.27;;;;;;;26.86;100.00;100322.96;1646283;84;21097;-91
2021/08/08 08:46:15;;;;;;;22.55;20.35;;;;;;;26.95;100.00;100309.56;1683114;83;21062;-87
2021/08/08 08:48:43;;;;;;;21.15;19.10;;;;;;;27.03;100.00;100313.22;1660857;85;21486;-88
2021/08/08 08:51:15;;;;;;;22.02;19.82;;;;;;;27.13;100.00;100313.97;1659767;85;21545;-85
2021/08/08 08:53:45;;;;;;;22.40;20.30;;;;;;;27.10;100.00;100317.09;1628293;85;21069;-89
2021/08/08 08:56:14;;;;;;;26.73;21.23;;;;;;;26.99;100.00;100321.93;1633582;85;21103;-88
2021/08/08 08:58:42;;;;;;;22.17;19.98;;;;;;;26.88;100.00;100316.34;1633245;85;21098;-86
2021/08/08 09:01:10;;;;;;;23.18;21.02;;;;;;;26.84;100.00;100323.70;1640858;85;21114;-89
2021/08/08 09:03:40;;;;;;;23.55;21.00;;;;;;;26.85;100.00;100320.00;1635534;86;21439;-84
2021/08/08 09:06:07;;;;;;;22.20;20.10;;;;;;;26.87;100.00;100324.59;1625005;83;21098;-86
2021/08/08 09:08:35;;;;;;;23.00;20.75;;;;;;;26.94;100.00;100321.28;1686636;83;21111;-86
2021/08/08 09:11:06;;;;;;;21.97;19.82;;;;;;;27.09;100.00;100319.47;1683176;83;21084;-90
2021/08/08 09:13:56;;;;;;;23.20;20.88;;;;;;;27.30;100.00;100326.62;1702389;83;21555;-88
2021/08/08 09:16:26;;;;;;;22.93;20.50;;;;;;;27.44;100.00;100327.23;1674894;83;21050;-88
2021/08/08 09:18:56;;;;;;;21.30;19.40;;;;;;;27.53;100.00;100324.45;1677698;83;21190;-89
2021/08/08 09:21:26;;;;;;;20.80;18.70;;;;;;;27.64;100.00;100323.63;1656393;83;21142;-87
2021/08/08 09:23:59;;;;;;;20.30;18.48;;;;;;;27.75;100.00;100332.67;1680539;83;21648;-87
2021/08/08 09:26:34;;;;;;;21.65;19.67;;;;;;;27.81;100.00;100335.73;1686309;82;21115;-90
2021/08/08 09:29:14;;;;;;;20.35;18.48;;;;;;;27.86;100.00;100333.68;1661199;85;21118;-88
2021/08/08 09:31:49;;;;;;;19.87;17.87;;;;;;;27.94;100.00;100335.19;1692211;83;21090;-87
2021/08/08 09:34:29;;;;;;;20.48;17.90;;;;;;;27.99;100.00;100337.44;1706018;83;21918;-92
2021/08/08 09:36:59;;;;;;;18.37;16.67;;;;;;;28.00;100.00;100355.09;1658885;84;21015;-84
2021/08/08 09:39:34;;;;;;;19.42;17.60;;;;;;;28.02;100.00;100346.30;1702731;83;21209;-85
2021/08/08 09:42:22;;;;;;;19.23;17.52;;;;;;;28.06;100.00;100352.53;1678546;83;20989;-89
2021/08/08 09:44:56;;;;;;;19.00;17.12;;;;;;;28.08;100.00;100353.95;1679553;83;21525;-84
2021/08/08 09:47:39;;;;;;;16.70;15.23;;;;;;;28.13;100.00;100358.05;1696878;83;21151;-88
2021/08/08 09:50:10;;;;;;;18.65;16.82;;;;;;;28.20;100.00;100356.58;1708836;83;21028;-88
2021/08/08 09:52:38;;;;;;;18.23;16.52;;;;;;;28.26;100.00;100359.63;1682599;83;21079;-89
2021/08/08 09:55:18;;;;;;;17.80;16.10;;;;;;;28.31;100.00;100361.59;1713514;83;21866;-93
2021/08/08 09:57:45;;;;;;;17.85;16.15;;;;;;;28.35;100.00;100357.39;1705279;83;21034;-89
2021/08/08 10:00:35;;;;;;;17.65;15.95;;;;;;;28.32;100.00;100357.32;1705968;83;21094;-88
2021/08/08 10:03:11;;;;;;;19.85;17.10;;;;;;;28.28;100.00;100350.03;1668687;83;21030;-87
2021/08/08 10:05:42;;;;;;;19.30;17.40;;;;;;;28.23;100.00;100355.27;1682319;83;21148;-88
2021/08/08 10:08:13;;;;;;;20.85;16.75;;;;;;;28.19;100.00;100357.62;1710403;83;21085;-90
2021/08/08 10:10:45;;;;;;;19.15;17.23;;;;;;;28.20;100.00;100357.91;1704347;83;21428;-86
2021/08/08 10:13:53;;;;;;;18.15;16.20;;;;;;;28.28;100.00;100356.19;1675352;83;21517;-87
2021/08/08 10:16:23;;;;;;;18.57;16.48;;;;;;;28.43;100.00;100365.03;1706628;83;21034;-86
2021/08/08 10:18:56;;;;;;;18.60;16.82;;;;;;;28.54;100.00;100363.34;1683319;83;20972;-89
2021/08/08 10:21:24;;;;;;;20.10;18.07;;;;;;;28.59;100.00;100361.28;1679142;83;21074;-89
2021/08/08 10:23:57;;;;;;;20.62;18.27;;;;;;;28.63;100.00;100366.42;1674236;84;20959;-90
2021/08/08 10:26:24;;;;;;;;;;;;;;;28.71;100.00;100359.91;1661522;83;21093;-90
2021/08/08 10:28:53;;;;;;;19.75;17.70;;;;;;;28.83;100.00;100361.16;1672617;83;20236;-92
2021/08/08 10:31:26;;;;;;;18.32;16.62;;;;;;;28.90;100.00;100367.17;1667370;84;21054;-91
2021/08/08 10:33:57;;;;;;;19.25;17.37;;;;;;;29.00;100.00;100365.17;1677986;83;20983;-90
2021/08/08 10:36:30;;;;;;;19.17;17.25;;;;;;;29.10;100.00;100365.33;1672969;83;21078;-87
2021/08/08 10:39:16;;;;;;;20.40;18.27;;;;;;;29.15;100.00;100362.72;1676604;83;21324;-86
2021/08/08 10:42:01;;;;;;;19.40;17.32;;;;;;;29.14;100.00;100364.31;1702365;83;21058;-85
2021/08/08 10:44:27;;;;;;;18.25;16.55;;;;;;;29.12;100.00;100358.66;1675978;83;21644;-89
2021/08/08 10:46:55;;;;;;;19.30;17.42;;;;;;;29.15;100.00;100360.03;1689661;83;21090;-88
2021/08/08 10:49:30;;;;;;;18.80;16.85;;;;;;;29.21;100.00;100359.59;1699402;82;21059;-87
2021/08/08 10:52:03;;;;;;;17.52;15.93;;;;;;;29.22;100.00;100362.02;1662771;83;21164;-90
2021/08/08 10:54:43;;;;;;;19.05;16.65;;;;;;;29.23;100.00;100362.30;1682882;83;21025;-90
2021/08/08 10:57:12;;;;;;;18.35;15.03;;;;;;;29.27;100.00;100366.13;1678821;83;21080;-88
2021/08/08 10:59:50;;;;;;;20.10;18.23;;;;;;;29.43;100.00;100371.19;1693735;84;21628;-92
2021/08/08 11:02:30;;;;;;;17.80;16.02;;;;;;;29.67;100.00;100362.12;1704867;83;21062;-87
2021/08/08 11:04:59;;;;;;;17.50;15.80;;;;;;;29.77;100.00;100366.25;1672842;83;21464;-87
2021/08/08 11:07:29;;;;;;;18.67;16.30;;;;;;;29.82;100.00;100368.18;1648309;83;21007;-93
2021/08/08 11:09:57;;;;;;;16.75;15.05;;;;;;;29.78;100.00;100375.13;1616750;88;21152;-91
2021/08/08 11:12:38;;;;;;;17.80;15.48;;;;;;;29.73;100.00;100364.59;1627454;86;21093;-86